createdAt,value
2023-03-17T00:00:27.909Z,8.50
2023-03-17T00:01:27.850Z,7.50
2023-03-17T00:02:27.833Z,6.20
2023-03-17T00:03:27.810Z,6.80
2023-03-17T00:04:27.808Z,8.00
2023-03-17T00:05:27.766Z,8.00
2023-03-17T00:06:27.772Z,8.50
2023-03-17T00:07:27.731Z,7.10
2023-03-17T00:08:27.743Z,8.20
2023-03-17T00:09:27.739Z,8.20
2023-03-17T00:10:27.767Z,8.70
2023-03-17T00:11:27.690Z,8.70
2023-03-17T00:12:27.685Z,7.70
2023-03-17T00:13:27.649Z,8.90
2023-03-17T00:14:27.672Z,9.20
2023-03-17T00:15:27.623Z,8.40
2023-03-17T00:16:27.624Z,7.70
2023-03-17T00:17:27.595Z,7.40
2023-03-17T00:18:27.594Z,7.00
2023-03-17T00:19:27.592Z,7.00
2023-03-17T00:20:27.834Z,7.60
2023-03-17T00:21:27.598Z,6.10
2023-03-17T00:22:27.532Z,8.30
2023-03-17T00:23:27.529Z,6.60
2023-03-17T00:24:27.510Z,8.10
2023-03-17T00:25:27.501Z,8.20
2023-03-17T00:26:27.483Z,9.60
2023-03-17T00:27:27.479Z,7.70
2023-03-17T00:28:27.479Z,6.90
2023-03-17T00:29:27.463Z,6.60
2023-03-17T00:30:27.508Z,7.50
2023-03-17T00:31:27.474Z,11.20
2023-03-17T00:32:27.417Z,7.70
2023-03-17T00:33:27.411Z,8.50
2023-03-17T00:34:27.407Z,8.60
2023-03-17T00:35:27.393Z,8.50
2023-03-17T00:36:27.360Z,8.80
2023-03-17T00:37:27.345Z,8.10
2023-03-17T00:38:27.340Z,7.30
2023-03-17T00:39:27.327Z,8.50
2023-03-17T00:40:27.402Z,9.60
2023-03-17T00:41:27.380Z,9.00
2023-03-17T00:42:27.277Z,8.90
2023-03-17T00:43:27.973Z,8.90
2023-03-17T00:44:27.255Z,8.10
2023-03-17T00:45:27.245Z,8.40
2023-03-17T00:46:27.284Z,7.60
2023-03-17T00:47:27.224Z,7.40
2023-03-17T00:48:27.216Z,9.30
2023-03-17T00:49:27.194Z,7.10
2023-03-17T00:50:27.186Z,8.10
2023-03-17T00:51:27.169Z,8.60
2023-03-17T00:52:27.153Z,7.90
2023-03-17T00:53:27.135Z,8.80
2023-03-17T00:54:27.124Z,9.60
2023-03-17T00:55:27.145Z,8.90
2023-03-17T00:56:27.097Z,9.70
2023-03-17T00:57:27.091Z,7.20
2023-03-17T00:58:27.096Z,9.00
2023-03-17T00:59:27.070Z,8.00
2023-03-17T01:00:27.063Z,7.40
2023-03-17T01:01:27.044Z,6.70
2023-03-17T01:02:27.037Z,8.80
2023-03-17T01:03:27.009Z,7.80
2023-03-17T01:04:27.032Z,9.00
2023-03-17T01:05:26.969Z,7.20
2023-03-17T01:06:26.962Z,6.80
2023-03-17T01:07:26.979Z,9.00
2023-03-17T01:08:26.941Z,8.60
2023-03-17T01:09:26.939Z,8.00
2023-03-17T01:10:26.948Z,8.80
2023-03-17T01:11:26.908Z,8.00
2023-03-17T01:12:26.890Z,8.10
2023-03-17T01:13:26.888Z,7.50
2023-03-17T01:14:26.874Z,7.60
2023-03-17T01:15:26.877Z,8.10
2023-03-17T01:16:26.935Z,6.10
2023-03-17T01:17:26.819Z,7.20
2023-03-17T01:18:26.844Z,7.30
2023-03-17T01:19:26.810Z,7.40
2023-03-17T01:20:26.775Z,7.80
2023-03-17T01:21:26.779Z,7.40
2023-03-17T01:22:26.753Z,8.80
2023-03-17T01:23:26.734Z,7.70
2023-03-17T01:24:26.736Z,10.30
2023-03-17T01:25:26.727Z,8.70
2023-03-17T01:26:26.726Z,6.90
2023-03-17T01:27:26.716Z,7.30
2023-03-17T01:28:26.680Z,6.60
2023-03-17T01:29:26.706Z,8.30
2023-03-17T01:30:26.650Z,7.40
2023-03-17T01:31:26.685Z,6.60
2023-03-17T01:32:26.653Z,6.80
2023-03-17T01:33:26.622Z,8.20
2023-03-17T01:34:26.633Z,8.10
2023-03-17T01:35:26.595Z,6.60
2023-03-17T01:36:26.574Z,6.80
2023-03-17T01:37:26.567Z,6.00
2023-03-17T01:38:26.555Z,7.40
2023-03-17T01:39:26.573Z,7.30
2023-03-17T01:40:26.532Z,6.70
2023-03-17T01:41:26.514Z,7.30
2023-03-17T01:42:26.518Z,5.90
2023-03-17T01:43:26.524Z,8.30
2023-03-17T01:44:26.481Z,7.70
2023-03-17T01:45:26.548Z,6.60
2023-03-17T01:46:26.466Z,8.40
2023-03-17T01:47:26.479Z,7.20
2023-03-17T01:48:26.492Z,5.70
2023-03-17T01:49:26.480Z,6.50
2023-03-17T01:50:26.400Z,6.00
2023-03-17T01:51:26.468Z,7.70
2023-03-17T01:52:26.382Z,6.40
2023-03-17T01:53:26.372Z,7.60
2023-03-17T01:54:26.374Z,6.20
2023-03-17T01:55:26.342Z,7.60
2023-03-17T01:56:26.338Z,6.60
2023-03-17T01:57:26.328Z,7.40
2023-03-17T01:58:26.309Z,7.00
2023-03-17T01:59:26.300Z,6.50
2023-03-17T02:00:26.279Z,8.20
2023-03-17T02:01:26.336Z,6.80
2023-03-17T02:02:26.250Z,7.40
2023-03-17T02:03:26.248Z,6.10
2023-03-17T02:04:26.300Z,5.80
2023-03-17T02:05:26.245Z,7.10
2023-03-17T02:06:26.210Z,6.70
2023-03-17T02:07:26.176Z,7.10
2023-03-17T02:08:26.169Z,6.50
2023-03-17T02:09:26.159Z,6.20
2023-03-17T02:10:26.168Z,8.20
2023-03-17T02:11:26.141Z,6.60
2023-03-17T02:12:26.121Z,6.00
2023-03-17T02:13:26.117Z,6.10
2023-03-17T02:14:26.103Z,6.50
2023-03-17T02:15:26.106Z,7.20
2023-03-17T02:16:26.159Z,6.30
2023-03-17T02:17:26.055Z,6.80
2023-03-17T02:18:26.039Z,7.00
2023-03-17T02:19:26.033Z,6.50
2023-03-17T02:20:26.029Z,6.20
2023-03-17T02:21:26.018Z,6.90
2023-03-17T02:22:25.975Z,8.10
2023-03-17T02:23:25.968Z,7.10
2023-03-17T02:24:25.966Z,6.80
2023-03-17T02:25:25.954Z,7.50
2023-03-17T02:26:25.951Z,7.10
2023-03-17T02:27:25.929Z,7.00
2023-03-17T02:28:25.993Z,7.50
2023-03-17T02:29:25.894Z,9.00
2023-03-17T02:30:25.905Z,8.40
2023-03-17T02:31:25.865Z,7.80
2023-03-17T02:32:25.873Z,7.10
2023-03-17T02:33:25.852Z,6.10
2023-03-17T02:34:25.858Z,7.60
2023-03-17T02:35:25.845Z,6.70
2023-03-17T02:36:25.865Z,8.00
2023-03-17T02:37:25.804Z,7.10
2023-03-17T02:38:25.776Z,6.90
2023-03-17T02:39:25.775Z,6.70
2023-03-17T02:40:25.765Z,7.20
2023-03-17T02:41:25.755Z,8.00
2023-03-17T02:42:25.735Z,6.20
2023-03-17T02:43:25.724Z,9.10
2023-03-17T02:44:25.708Z,7.90
2023-03-17T02:45:25.726Z,6.90
2023-03-17T02:46:25.723Z,8.70
2023-03-17T02:47:25.677Z,5.10
2023-03-17T02:48:25.656Z,7.60
2023-03-17T02:49:25.662Z,7.90
2023-03-17T02:50:25.661Z,7.20
2023-03-17T02:51:25.635Z,6.00
2023-03-17T02:52:25.603Z,7.10
2023-03-17T02:53:25.618Z,8.40
2023-03-17T02:54:25.580Z,6.50
2023-03-17T02:55:25.576Z,6.90
2023-03-17T02:56:25.553Z,7.80
2023-03-17T02:57:25.542Z,7.10
2023-03-17T02:58:25.523Z,7.70
2023-03-17T02:59:25.513Z,7.00
2023-03-17T03:00:25.514Z,7.00
2023-03-17T03:01:25.558Z,8.00
2023-03-17T03:02:25.509Z,6.40
2023-03-17T03:03:25.476Z,7.40
2023-03-17T03:04:25.502Z,6.70
2023-03-17T03:05:25.456Z,5.60
2023-03-17T03:06:25.430Z,6.60
2023-03-17T03:07:25.434Z,5.70
2023-03-17T03:08:25.412Z,6.40
2023-03-17T03:09:25.486Z,5.80
2023-03-17T03:10:25.403Z,6.20
2023-03-17T03:11:25.377Z,5.90
2023-03-17T03:12:25.343Z,7.20
2023-03-17T03:13:25.342Z,5.00
2023-03-17T03:14:25.337Z,6.70
2023-03-17T03:15:25.324Z,5.50
2023-03-17T03:16:25.291Z,6.00
2023-03-17T03:17:25.298Z,6.50
2023-03-17T03:18:25.265Z,6.10
2023-03-17T03:19:25.271Z,6.80
2023-03-17T03:20:25.260Z,7.10
2023-03-17T03:21:25.233Z,7.50
2023-03-17T03:22:25.212Z,5.20
2023-03-17T03:23:25.208Z,7.30
2023-03-17T03:24:25.213Z,5.90
2023-03-17T03:25:25.196Z,5.40
2023-03-17T03:26:25.169Z,6.00
2023-03-17T03:27:25.149Z,6.70
2023-03-17T03:28:25.148Z,5.60
2023-03-17T03:29:25.170Z,5.60
2023-03-17T03:30:25.137Z,6.80
2023-03-17T03:31:25.250Z,6.50
2023-03-17T03:32:25.093Z,5.90
2023-03-17T03:33:25.119Z,6.10
2023-03-17T03:34:25.055Z,5.80
2023-03-17T03:35:25.090Z,5.00
2023-03-17T03:36:25.046Z,6.10
2023-03-17T03:37:25.028Z,6.10
2023-03-17T03:38:25.057Z,5.30
2023-03-17T03:39:24.998Z,5.40
2023-03-17T03:40:24.989Z,6.10
2023-03-17T03:41:24.968Z,6.30
2023-03-17T03:42:24.971Z,5.10
2023-03-17T03:43:24.953Z,5.40
2023-03-17T03:44:24.943Z,7.50
2023-03-17T03:45:24.951Z,6.80
2023-03-17T03:46:24.920Z,6.80
2023-03-17T03:47:24.914Z,4.80
2023-03-17T03:48:24.885Z,5.90
2023-03-17T03:49:24.892Z,4.60
2023-03-17T03:50:24.871Z,6.00
2023-03-17T03:51:24.860Z,7.30
2023-03-17T03:52:24.832Z,4.40
2023-03-17T03:53:24.821Z,4.90
2023-03-17T03:54:24.805Z,5.20
2023-03-17T03:55:24.800Z,4.60
2023-03-17T03:56:24.797Z,5.40
2023-03-17T03:57:24.766Z,4.90
2023-03-17T03:58:24.762Z,6.50
2023-03-17T03:59:24.781Z,6.30
2023-03-17T04:00:24.746Z,6.50
2023-03-17T04:01:24.749Z,5.90
2023-03-17T04:02:24.716Z,5.40
2023-03-17T04:03:24.708Z,5.70
2023-03-17T04:04:24.706Z,5.10
2023-03-17T04:05:24.680Z,5.00
2023-03-17T04:06:24.657Z,6.00
2023-03-17T04:07:24.654Z,6.50
2023-03-17T04:08:24.623Z,5.90
2023-03-17T04:09:24.605Z,5.20
2023-03-17T04:10:24.602Z,4.40
2023-03-17T04:11:24.579Z,4.40
2023-03-17T04:12:24.564Z,4.10
2023-03-17T04:13:24.597Z,4.70
2023-03-17T04:14:24.569Z,4.10
2023-03-17T04:15:24.542Z,5.40
2023-03-17T04:16:24.525Z,5.50
2023-03-17T04:17:24.538Z,6.20
2023-03-17T04:18:24.484Z,5.20
2023-03-17T04:19:24.492Z,6.80
2023-03-17T04:20:24.498Z,6.80
2023-03-17T04:21:24.510Z,5.00
2023-03-17T04:22:24.434Z,5.10
2023-03-17T04:23:24.422Z,4.40
2023-03-17T04:24:24.411Z,5.10
2023-03-17T04:25:24.425Z,4.20
2023-03-17T04:26:24.402Z,4.00
2023-03-17T04:27:24.395Z,4.20
2023-03-17T04:28:24.361Z,6.10
2023-03-17T04:29:24.349Z,4.50
2023-03-17T04:30:24.343Z,5.40
2023-03-17T04:31:24.353Z,5.30
2023-03-17T04:32:27.060Z,4.00
2023-03-17T04:33:24.308Z,4.90
2023-03-17T04:34:24.313Z,4.50
2023-03-17T04:35:24.270Z,3.70
2023-03-17T04:36:24.287Z,5.00
2023-03-17T04:37:24.259Z,3.50
2023-03-17T04:38:24.223Z,4.10
2023-03-17T04:39:24.245Z,3.60
2023-03-17T04:40:24.216Z,5.10
2023-03-17T04:41:24.202Z,5.00
2023-03-17T04:42:24.185Z,5.80
2023-03-17T04:43:24.175Z,5.10
2023-03-17T04:44:24.160Z,5.30
2023-03-17T04:45:24.162Z,5.00
2023-03-17T04:46:24.120Z,4.60
2023-03-17T04:47:24.134Z,4.20
2023-03-17T04:48:24.132Z,5.40
2023-03-17T04:49:24.096Z,4.90
2023-03-17T04:50:24.146Z,5.70
2023-03-17T04:51:24.064Z,5.20
2023-03-17T04:52:24.045Z,6.90
2023-03-17T04:53:24.029Z,6.70
2023-03-17T04:54:24.034Z,6.20
2023-03-17T04:55:24.043Z,5.70
2023-03-17T04:56:23.997Z,6.10
2023-03-17T04:57:23.998Z,9.30
2023-03-17T04:58:30.803Z,6.10
2023-03-17T04:59:24.944Z,8.60
2023-03-17T05:00:23.956Z,7.30
2023-03-17T05:01:23.952Z,9.10
2023-03-17T05:02:23.929Z,8.00
2023-03-17T05:03:27.142Z,6.60
2023-03-17T05:04:31.582Z,6.20
2023-03-17T05:05:24.906Z,5.70
2023-03-17T05:06:23.879Z,7.00
2023-03-17T05:07:23.853Z,8.80
2023-03-17T05:08:23.858Z,5.00
2023-03-17T05:09:23.828Z,5.10
2023-03-17T05:10:23.865Z,7.80
2023-03-17T05:11:23.818Z,7.50
2023-03-17T05:12:23.800Z,5.60
2023-03-17T05:13:23.789Z,5.00
2023-03-17T05:14:23.763Z,6.20
2023-03-17T05:15:23.775Z,7.00
2023-03-17T05:16:23.753Z,6.10
2023-03-17T05:17:23.731Z,5.40
2023-03-17T05:18:23.772Z,4.90
2023-03-17T05:19:23.725Z,6.90
2023-03-17T05:20:23.713Z,6.30
2023-03-17T05:21:23.682Z,9.20
2023-03-17T05:22:23.669Z,5.50
2023-03-17T05:23:23.644Z,6.40
2023-03-17T05:24:23.630Z,7.50
2023-03-17T05:25:23.647Z,6.60
2023-03-17T05:26:23.612Z,5.20
2023-03-17T05:27:23.595Z,5.30
2023-03-17T05:28:23.581Z,6.90
2023-03-17T05:29:23.563Z,6.90
2023-03-17T05:30:23.573Z,5.70
2023-03-17T05:31:23.622Z,7.00
2023-03-17T05:32:23.536Z,7.20
2023-03-17T05:33:23.529Z,5.80
2023-03-17T05:34:23.583Z,6.10
2023-03-17T05:35:23.520Z,7.00
2023-03-17T05:36:23.512Z,6.00
2023-03-17T05:37:23.461Z,5.30
2023-03-17T05:38:23.468Z,4.90
2023-03-17T05:39:23.465Z,5.30
2023-03-17T05:40:24.001Z,4.50
2023-03-17T05:41:23.408Z,3.90
2023-03-17T05:42:23.408Z,3.90
2023-03-17T05:43:23.389Z,4.80
2023-03-17T05:44:23.391Z,4.70
2023-03-17T05:45:23.367Z,5.40
2023-03-17T05:46:23.433Z,5.60
2023-03-17T05:47:23.338Z,4.20
2023-03-17T05:48:23.333Z,5.90
2023-03-17T05:49:23.312Z,5.40
2023-03-17T05:50:23.317Z,6.30
2023-03-17T05:51:23.282Z,9.00
2023-03-17T05:52:23.267Z,4.20
2023-03-17T05:53:23.277Z,7.00
2023-03-17T05:54:23.277Z,5.30
2023-03-17T05:55:23.253Z,5.80
2023-03-17T05:56:23.242Z,5.80
2023-03-17T05:57:23.208Z,14.80
2023-03-17T05:58:23.198Z,22.90
2023-03-17T05:59:23.239Z,17.40
2023-03-17T06:00:23.196Z,14.50
2023-03-17T06:01:23.189Z,16.00
2023-03-17T06:02:23.303Z,19.90
2023-03-17T06:03:23.138Z,15.00
2023-03-17T06:04:23.128Z,11.70
2023-03-17T06:05:23.108Z,9.50
2023-03-17T06:06:23.145Z,8.80
2023-03-17T06:07:23.087Z,9.70
2023-03-17T06:08:23.088Z,7.10
2023-03-17T06:09:23.126Z,12.70
2023-03-17T06:10:23.058Z,10.70
2023-03-17T06:11:23.038Z,20.10
2023-03-17T06:12:23.017Z,11.00
2023-03-17T06:13:23.017Z,11.60
2023-03-17T06:14:22.990Z,10.50
2023-03-17T06:15:23.032Z,7.40
2023-03-17T06:16:23.067Z,8.90
2023-03-17T06:17:22.950Z,7.70
2023-03-17T06:18:22.937Z,8.70
2023-03-17T06:19:22.929Z,7.70
2023-03-17T06:20:22.921Z,5.50
2023-03-17T06:21:22.895Z,3.40
2023-03-17T06:22:22.895Z,6.50
2023-03-17T06:23:22.876Z,5.10
2023-03-17T06:24:22.865Z,5.30
2023-03-17T06:25:22.855Z,4.70
2023-03-17T06:26:22.905Z,3.40
2023-03-17T06:27:22.843Z,5.00
2023-03-17T06:28:22.815Z,4.30
2023-03-17T06:29:22.797Z,3.20
2023-03-17T06:30:22.800Z,4.50
2023-03-17T06:31:22.790Z,4.50
2023-03-17T06:32:22.764Z,4.00
2023-03-17T06:33:22.782Z,5.80
2023-03-17T06:34:22.733Z,5.00
2023-03-17T06:35:22.788Z,4.40
2023-03-17T06:36:22.703Z,4.10
2023-03-17T06:37:22.693Z,4.70
2023-03-17T06:38:22.673Z,3.40
2023-03-17T06:39:22.661Z,3.70
2023-03-17T06:40:22.665Z,4.20
2023-03-17T06:41:22.633Z,3.30
2023-03-17T06:42:22.622Z,4.60
2023-03-17T06:43:22.614Z,4.10
2023-03-17T06:44:22.603Z,4.00
2023-03-17T06:45:22.594Z,5.00
2023-03-17T06:46:22.659Z,3.70
2023-03-17T06:47:24.805Z,4.40
2023-03-17T06:48:22.542Z,4.00
2023-03-17T06:49:22.536Z,3.60
2023-03-17T06:50:22.545Z,4.70
2023-03-17T06:51:22.493Z,2.30
2023-03-17T06:52:22.479Z,2.50
2023-03-17T06:53:22.483Z,5.50
2023-03-17T06:54:22.464Z,2.80
2023-03-17T06:55:22.507Z,3.20
2023-03-17T06:56:29.900Z,3.50
2023-03-17T06:57:23.430Z,3.80
2023-03-17T06:58:22.422Z,3.60
2023-03-17T06:59:22.393Z,2.70
2023-03-17T07:00:22.403Z,4.20
2023-03-17T07:01:22.447Z,3.60
2023-03-17T07:02:22.379Z,4.40
2023-03-17T07:03:22.349Z,4.10
2023-03-17T07:04:22.393Z,4.40
2023-03-17T07:05:22.344Z,3.40
2023-03-17T07:06:22.310Z,4.50
2023-03-17T07:07:22.293Z,2.60
2023-03-17T07:08:22.298Z,2.70
2023-03-17T07:09:22.273Z,2.40
2023-03-17T07:10:22.257Z,4.20
2023-03-17T07:11:22.242Z,3.00
2023-03-17T07:12:22.250Z,4.20
2023-03-17T07:13:22.226Z,5.50
2023-03-17T07:14:22.228Z,4.30
2023-03-17T07:15:22.195Z,5.60
2023-03-17T07:16:22.199Z,6.20
2023-03-17T07:17:22.168Z,3.50
2023-03-17T07:18:22.220Z,9.50
2023-03-17T07:19:22.154Z,11.90
2023-03-17T07:20:22.134Z,7.10
2023-03-17T07:21:22.106Z,4.40
2023-03-17T07:22:22.110Z,6.40
2023-03-17T07:23:22.113Z,7.90
2023-03-17T07:24:22.089Z,8.20
2023-03-17T07:25:22.058Z,4.00
2023-03-17T07:26:22.043Z,3.40
2023-03-17T07:27:23.177Z,6.10
2023-03-17T07:28:22.169Z,4.60
2023-03-17T07:29:22.114Z,5.50
2023-03-17T07:30:22.027Z,6.90
2023-03-17T07:31:22.056Z,4.30
2023-03-17T07:32:22.051Z,4.80
2023-03-17T07:33:21.955Z,4.90
2023-03-17T07:34:21.949Z,4.50
2023-03-17T07:35:21.980Z,3.90
2023-03-17T07:36:21.912Z,3.90
2023-03-17T07:37:21.890Z,4.70
2023-03-17T07:38:21.880Z,5.00
2023-03-17T07:39:21.873Z,3.90
2023-03-17T07:40:21.856Z,4.70
2023-03-17T07:41:21.831Z,5.10
2023-03-17T07:42:21.854Z,4.60
2023-03-17T07:43:21.854Z,3.70
2023-03-17T07:44:21.798Z,4.60
2023-03-17T07:45:21.780Z,4.60
2023-03-17T07:46:21.796Z,6.10
2023-03-17T07:47:21.773Z,3.80
2023-03-17T07:48:21.749Z,6.00
2023-03-17T07:49:38.215Z,6.70
2023-03-17T07:50:22.737Z,3.40
2023-03-17T07:51:21.702Z,3.20
2023-03-17T07:52:21.686Z,3.00
2023-03-17T07:53:21.694Z,3.40
2023-03-17T07:54:21.674Z,3.70
2023-03-17T07:55:21.652Z,2.80
2023-03-17T07:56:21.648Z,5.00
2023-03-17T07:57:21.704Z,3.60
2023-03-17T07:58:21.605Z,3.70
2023-03-17T07:59:21.605Z,3.50
2023-03-17T08:00:21.616Z,5.40
2023-03-17T08:01:21.619Z,3.50
2023-03-17T08:02:21.582Z,3.60
2023-03-17T08:03:21.598Z,3.80
2023-03-17T08:04:21.525Z,4.00
2023-03-17T08:05:21.522Z,3.20
2023-03-17T08:06:21.569Z,9.30
2023-03-17T08:07:21.488Z,5.40
2023-03-17T08:08:21.492Z,3.40
2023-03-17T08:09:21.447Z,2.70
2023-03-17T08:10:21.483Z,3.20
2023-03-17T08:11:21.476Z,5.00
2023-03-17T08:12:21.414Z,3.40
2023-03-17T08:13:21.404Z,4.10
2023-03-17T08:14:21.393Z,3.40
2023-03-17T08:15:21.382Z,4.20
2023-03-17T08:16:21.411Z,3.90
2023-03-17T08:17:21.352Z,3.40
2023-03-17T08:18:21.394Z,5.50
2023-03-17T08:19:21.346Z,3.20
2023-03-17T08:20:21.333Z,3.50
2023-03-17T08:21:21.283Z,3.50
2023-03-17T08:22:21.294Z,4.10
2023-03-17T08:23:21.285Z,3.50
2023-03-17T08:24:21.304Z,2.20
2023-03-17T08:25:21.279Z,2.40
2023-03-17T08:26:21.235Z,2.90
2023-03-17T08:27:21.207Z,2.80
2023-03-17T08:28:21.270Z,3.00
2023-03-17T08:29:21.401Z,2.70
2023-03-17T08:30:21.198Z,2.90
2023-03-17T08:31:21.264Z,2.90
2023-03-17T08:32:21.155Z,3.30
2023-03-17T08:33:21.170Z,2.30
2023-03-17T08:34:21.122Z,2.50
2023-03-17T08:35:21.129Z,2.50
2023-03-17T08:36:21.116Z,3.40
2023-03-17T08:37:21.098Z,3.70
2023-03-17T08:38:21.084Z,2.30
2023-03-17T08:39:21.050Z,3.00
2023-03-17T08:40:21.064Z,2.10
2023-03-17T08:41:21.028Z,2.90
2023-03-17T08:42:21.018Z,2.40
2023-03-17T08:43:21.010Z,1.90
2023-03-17T08:44:20.995Z,2.40
2023-03-17T08:45:21.021Z,2.50
2023-03-17T08:46:21.077Z,2.00
2023-03-17T08:47:20.968Z,2.80
2023-03-17T08:48:21.063Z,2.00
2023-03-17T08:49:20.920Z,1.50
2023-03-17T08:50:20.944Z,2.10
2023-03-17T08:51:24.072Z,1.50
2023-03-17T08:52:20.892Z,2.70
2023-03-17T08:53:20.882Z,2.60
2023-03-17T08:54:20.851Z,2.60
2023-03-17T08:55:20.860Z,2.30
2023-03-17T08:56:20.832Z,2.70
2023-03-17T08:57:20.847Z,1.70
2023-03-17T08:58:20.846Z,3.00
2023-03-17T08:59:20.802Z,4.10
2023-03-17T09:00:20.793Z,2.60
2023-03-17T09:01:20.849Z,1.70
2023-03-17T09:02:20.785Z,2.30
2023-03-17T09:03:20.750Z,2.40
2023-03-17T09:04:20.735Z,1.50
2023-03-17T09:05:20.775Z,2.80
2023-03-17T09:06:20.703Z,2.40
2023-03-17T09:07:20.693Z,2.60
2023-03-17T09:08:20.753Z,2.20
2023-03-17T09:09:20.664Z,2.80
2023-03-17T09:10:20.653Z,1.90
2023-03-17T09:11:20.634Z,2.30
2023-03-17T09:12:20.623Z,2.00
2023-03-17T09:13:20.623Z,2.40
2023-03-17T09:14:20.639Z,2.90
2023-03-17T09:15:20.600Z,2.60
2023-03-17T09:16:20.631Z,3.60
2023-03-17T09:17:20.574Z,1.50
2023-03-17T09:18:22.107Z,2.70
2023-03-17T09:19:20.528Z,2.10
2023-03-17T09:20:20.555Z,3.80
2023-03-17T09:21:20.538Z,2.50
2023-03-17T09:22:20.501Z,3.10
2023-03-17T09:23:20.476Z,3.50
2023-03-17T09:24:20.457Z,2.80
2023-03-17T09:25:20.614Z,2.00
2023-03-17T09:26:20.429Z,2.60
2023-03-17T09:27:20.421Z,9.00
2023-03-17T09:28:20.420Z,3.20
2023-03-17T09:29:20.423Z,3.30
2023-03-17T09:30:20.405Z,2.40
2023-03-17T09:31:20.451Z,3.30
2023-03-17T09:32:20.354Z,1.90
2023-03-17T09:33:20.344Z,3.20
2023-03-17T09:34:20.333Z,2.90
2023-03-17T09:35:20.333Z,2.70
2023-03-17T09:36:20.311Z,6.30
2023-03-17T09:37:20.305Z,3.60
2023-03-17T09:38:20.276Z,9.50
2023-03-17T09:39:20.279Z,4.00
2023-03-17T09:40:20.282Z,5.20
2023-03-17T09:41:20.263Z,3.70
2023-03-17T09:42:20.217Z,4.10
2023-03-17T09:43:20.206Z,6.90
2023-03-17T09:44:20.194Z,4.30
2023-03-17T09:45:20.198Z,2.30
2023-03-17T09:46:20.178Z,3.30
2023-03-17T09:47:20.156Z,2.60
2023-03-17T09:48:20.139Z,2.60
2023-03-17T09:49:20.133Z,3.30
2023-03-17T09:50:20.123Z,2.90
2023-03-17T09:51:20.121Z,3.40
2023-03-17T09:52:20.086Z,1.70
2023-03-17T09:53:20.076Z,2.90
2023-03-17T09:54:20.083Z,2.50
2023-03-17T09:55:20.057Z,2.30
2023-03-17T09:56:20.069Z,3.80
2023-03-17T09:57:20.043Z,4.00
2023-03-17T09:58:20.008Z,2.90
2023-03-17T09:59:19.993Z,3.50
2023-03-17T10:00:19.996Z,2.90
2023-03-17T10:01:20.086Z,2.50
2023-03-17T10:02:19.962Z,9.90
2023-03-17T10:03:19.935Z,4.10
2023-03-17T10:04:19.926Z,3.30
2023-03-17T10:05:19.969Z,2.10
2023-03-17T10:06:19.908Z,2.40
2023-03-17T10:07:19.896Z,3.30
2023-03-17T10:08:30.679Z,2.90
2023-03-17T10:09:20.872Z,2.50
2023-03-17T10:10:19.858Z,3.10
2023-03-17T10:11:19.844Z,3.50
2023-03-17T10:12:19.818Z,2.60
2023-03-17T10:13:19.807Z,4.20
2023-03-17T10:14:19.806Z,4.20
2023-03-17T10:15:19.929Z,2.50
2023-03-17T10:16:19.830Z,4.20
2023-03-17T10:17:19.757Z,3.50
2023-03-17T10:18:19.738Z,2.30
2023-03-17T10:19:19.728Z,4.00
2023-03-17T10:20:19.830Z,2.50
2023-03-17T10:21:19.702Z,4.20
2023-03-17T10:22:19.698Z,4.00
2023-03-17T10:23:19.683Z,2.40
2023-03-17T10:24:19.659Z,2.90
2023-03-17T10:25:19.677Z,2.50
2023-03-17T10:26:19.629Z,3.70
2023-03-17T10:27:19.638Z,2.60
2023-03-17T10:28:19.609Z,3.80
2023-03-17T10:29:19.631Z,2.50
2023-03-17T10:30:19.590Z,2.50
2023-03-17T10:31:19.622Z,2.90
2023-03-17T10:32:19.561Z,7.00
2023-03-17T10:33:19.548Z,3.20
2023-03-17T10:34:19.526Z,3.60
2023-03-17T10:35:19.562Z,2.70
2023-03-17T10:36:19.497Z,2.60
2023-03-17T10:37:19.500Z,3.20
2023-03-17T10:38:19.501Z,3.70
2023-03-17T10:39:19.478Z,2.60
2023-03-17T10:40:19.725Z,2.80
2023-03-17T10:41:19.447Z,2.60
2023-03-17T10:42:19.442Z,3.50
2023-03-17T10:43:19.409Z,3.00
2023-03-17T10:44:19.407Z,3.70
2023-03-17T10:45:19.410Z,3.10
2023-03-17T10:46:19.432Z,2.80
2023-03-17T10:47:19.367Z,3.70
2023-03-17T10:48:19.353Z,2.70
2023-03-17T10:49:19.341Z,3.10
2023-03-17T10:50:19.362Z,2.70
2023-03-17T10:51:19.306Z,1.80
2023-03-17T10:52:19.284Z,2.60
2023-03-17T10:53:19.287Z,2.50
2023-03-17T10:54:19.313Z,4.00
2023-03-17T10:55:19.250Z,3.20
2023-03-17T10:56:19.227Z,2.90
2023-03-17T10:57:19.233Z,3.60
2023-03-17T10:58:19.209Z,2.50
2023-03-17T10:59:19.264Z,3.10
2023-03-17T11:00:19.315Z,3.60
2023-03-17T11:01:19.196Z,2.10
2023-03-17T11:02:19.160Z,2.60
2023-03-17T11:03:19.148Z,2.80
2023-03-17T11:04:19.205Z,3.20
2023-03-17T11:05:19.123Z,3.10
2023-03-17T11:06:19.129Z,2.20
2023-03-17T11:07:19.090Z,3.50
2023-03-17T11:08:19.106Z,2.90
2023-03-17T11:09:19.065Z,3.30
2023-03-17T11:10:19.066Z,2.60
2023-03-17T11:11:20.068Z,2.10
2023-03-17T11:12:19.031Z,2.60
2023-03-17T11:13:19.033Z,2.30
2023-03-17T11:14:19.009Z,2.70
2023-03-17T11:15:19.004Z,2.90
2023-03-17T11:16:19.028Z,2.20
2023-03-17T11:17:18.997Z,3.00
2023-03-17T11:18:18.957Z,2.20
2023-03-17T11:19:18.948Z,2.20
2023-03-17T11:20:18.926Z,3.80
2023-03-17T11:21:18.898Z,1.90
2023-03-17T11:22:18.890Z,2.20
2023-03-17T11:23:18.885Z,2.00
2023-03-17T11:24:18.916Z,2.70
2023-03-17T11:25:18.867Z,3.30
2023-03-17T11:26:18.841Z,1.80
2023-03-17T11:27:18.841Z,1.80
2023-03-17T11:28:18.814Z,2.60
2023-03-17T11:29:18.807Z,2.20
2023-03-17T11:30:18.799Z,2.60
2023-03-17T11:31:18.816Z,2.30
2023-03-17T11:32:18.760Z,2.30
2023-03-17T11:33:18.747Z,3.40
2023-03-17T11:34:18.740Z,3.80
2023-03-17T11:35:18.726Z,1.70
2023-03-17T11:36:18.711Z,2.40
2023-03-17T11:37:18.702Z,3.10
2023-03-17T11:38:18.678Z,2.60
2023-03-17T11:39:18.681Z,2.80
2023-03-17T11:40:18.670Z,2.20
2023-03-17T11:41:18.641Z,2.50
2023-03-17T11:42:18.627Z,2.70
2023-03-17T11:43:18.620Z,3.20
2023-03-17T11:44:18.635Z,2.20
2023-03-17T11:45:18.592Z,1.90
2023-03-17T11:46:18.585Z,2.50
2023-03-17T11:47:18.573Z,2.20
2023-03-17T11:48:18.552Z,2.20
2023-03-17T11:49:18.540Z,2.80
2023-03-17T11:50:18.519Z,2.90
2023-03-17T11:51:18.509Z,3.20
2023-03-17T11:52:18.499Z,1.50
2023-03-17T11:53:18.511Z,2.50
2023-03-17T11:54:18.459Z,2.20
2023-03-17T11:55:18.478Z,2.60
2023-03-17T11:56:18.449Z,3.30
2023-03-17T11:57:18.424Z,3.40
2023-03-17T11:58:18.429Z,2.60
2023-03-17T11:59:18.405Z,1.40
2023-03-17T12:00:18.387Z,3.00
2023-03-17T12:01:18.394Z,2.30
2023-03-17T12:02:18.356Z,2.10
2023-03-17T12:03:18.402Z,3.00
2023-03-17T12:04:18.362Z,2.10
2023-03-17T12:05:18.325Z,2.10
2023-03-17T12:06:18.323Z,2.10
2023-03-17T12:07:18.286Z,2.20
2023-03-17T12:08:18.316Z,1.90
2023-03-17T12:09:18.265Z,3.30
2023-03-17T12:10:18.266Z,3.10
2023-03-17T12:11:18.244Z,2.30
2023-03-17T12:12:18.225Z,9.30
2023-03-17T12:13:18.221Z,2.30
2023-03-17T12:14:18.197Z,1.70
2023-03-17T12:15:18.195Z,1.70
2023-03-17T12:16:18.211Z,1.30
2023-03-17T12:17:18.196Z,2.10
2023-03-17T12:18:18.147Z,1.80
2023-03-17T12:19:18.133Z,1.90
2023-03-17T12:20:18.139Z,1.90
2023-03-17T12:21:18.112Z,1.70
2023-03-17T12:22:18.087Z,1.60
2023-03-17T12:23:18.075Z,1.80
2023-03-17T12:24:18.064Z,2.40
2023-03-17T12:25:18.069Z,2.30
2023-03-17T12:26:18.035Z,1.70
2023-03-17T12:27:18.026Z,1.90
2023-03-17T12:28:18.006Z,2.60
2023-03-17T12:29:18.017Z,2.50
2023-03-17T12:30:18.034Z,3.20
2023-03-17T12:31:17.983Z,2.00
2023-03-17T12:32:17.946Z,2.60
2023-03-17T12:33:17.957Z,1.80
2023-03-17T12:34:17.927Z,1.90
2023-03-17T12:35:17.941Z,2.60
2023-03-17T12:36:17.910Z,2.40
2023-03-17T12:37:17.915Z,2.40
2023-03-17T12:38:17.909Z,2.70
2023-03-17T12:39:18.721Z,2.20
2023-03-17T12:40:17.854Z,1.70
2023-03-17T12:41:17.844Z,1.80
2023-03-17T12:42:17.841Z,2.00
2023-03-17T12:43:17.822Z,2.20
2023-03-17T12:44:17.813Z,2.00
2023-03-17T12:45:17.796Z,1.90
2023-03-17T12:46:17.802Z,1.90
2023-03-17T12:47:17.766Z,2.30
2023-03-17T12:48:17.746Z,1.70
2023-03-17T12:49:17.734Z,2.90
2023-03-17T12:50:17.722Z,2.60
2023-03-17T12:51:17.716Z,2.30
2023-03-17T12:52:17.695Z,3.00
2023-03-17T12:53:17.684Z,1.60
2023-03-17T12:54:17.665Z,1.70
2023-03-17T12:55:17.663Z,1.90
2023-03-17T12:56:17.634Z,2.00
2023-03-17T12:57:17.629Z,2.80
2023-03-17T12:58:17.618Z,2.10
2023-03-17T12:59:17.603Z,2.00
2023-03-17T13:00:17.610Z,1.70
2023-03-17T13:01:17.680Z,2.40
2023-03-17T13:02:17.560Z,3.90
2023-03-17T13:03:17.580Z,1.80
2023-03-17T13:04:17.585Z,1.90
2023-03-17T13:05:17.526Z,1.60
2023-03-17T13:06:17.508Z,2.40
2023-03-17T13:07:17.495Z,3.70
2023-03-17T13:08:17.477Z,4.30
2023-03-17T13:09:17.466Z,3.60
2023-03-17T13:10:17.458Z,3.00
2023-03-17T13:11:17.438Z,2.70
2023-03-17T13:12:17.435Z,2.00
2023-03-17T13:13:17.510Z,3.20
2023-03-17T13:14:17.415Z,2.80
2023-03-17T13:15:17.402Z,2.40
2023-03-17T13:16:17.431Z,1.80
2023-03-17T13:17:17.376Z,4.00